Airfield :
LOGIN :

Register | Disclaimer

   EN    FR    IT 

 










Legend :    VFR   Marginal VFR   IFR   Intensive IFR   Very Intensive IFR
Visi :
Ceiling :
>= 8 km
>= 3000ft
5 to 8 km
1000 to 3000 ft
1500m to 5 km
500 to 1000 ft
800 to 1500m
200 to 500 ft
< 800m
< 200 ft
Symbols :   Thunderstorms  Fog  Heavy snow  Heavy precipitations  Wind > 20 kt
SIGMETs :     Misc.  Thunderstorms  Icing  Turbulence  Mountain Waves  Volcanic Ashes







- Airport Elevation : 1959 ft
- IATA code : HOQ


EDQM - Hof Plauen

CURRENT METAR :
  • 171420Z 02009KT 9999 -SN FEW010 BKN022 M05/M08 Q1032

EXPIRED METARs :
  • 171350Z 02010KT 9999 -SN FEW015 BKN022 M05/M08 Q1032
  • 171320Z 02010KT 9999 -SN SCT010 BKN021 M05/M07 Q1031
  • 171250Z 01011KT 4600 -SN BR FEW010 SCT017 BKN026 M05/M07 Q1031
  • 171220Z 02011KT 8000 -SN SCT009 BKN011 OVC026 M05/M07 Q1032
  • 171150Z 01011KT 330V030 9999 BKN009 OVC019 M05/M07 Q1032

TAF TAF EDQM
Valid from the 17 at 15:00 until the 18 at 00:00 UTC


171400Z 1715/1724 02010KT 9999 BKN015
TEMPO 1715/1719 4000 -SN BKN009
BECMG 1719/1721 BKN009
TEMPO 1721/1724 2000 BR OVC002
No reported NOTAMs for that airfield.
1 SIGMET reported for the München FIR (EDMM) :
 
Severe turbulence
EDMM SIGMET 2 VALID 171300/171700 EDZM
EDMM MUNCHEN FIR SEV TURB FCST WI N5117 E01504 - N5048 E01450 - N4910 E01313 - N4809 E00935 - N4958 E01042 - N5117 E01504 FL180/245 MOV SE NC=



MET'MAP, your aeronautical weather chart ! - Copyright ORBIFLY December 2007 - Disclaimer

ORBIFLY MET'MAP TEAM :

Programming & Development : Alexandra Zaïnal
Concept & Development : Baudouin d'Aumeries
Co-Development & Prog : Marc-Olivier Méhu
Technical & hardware support : Manuel Goepfert

Contact : metmap@orbifly.com




SOURCES & CREDITS :

   NOAA